sensor_id;sensor_type;location;lat;lon;timestamp;P1;durP1;ratioP1;P2;durP2;ratioP2
53411;SDS011;39307;52.870;13.660;2022-12-07T00:01:06;10.73;;;7.72;;
53411;SDS011;39307;52.870;13.660;2022-12-07T00:03:34;12.02;;;8.43;;
53411;SDS011;39307;52.870;13.660;2022-12-07T00:06:01;12.48;;;9.30;;
53411;SDS011;39307;52.870;13.660;2022-12-07T00:08:28;12.13;;;8.75;;
53411;SDS011;39307;52.870;13.660;2022-12-07T00:10:54;11.93;;;8.60;;
53411;SDS011;39307;52.870;13.660;2022-12-07T00:13:20;11.85;;;8.55;;
53411;SDS011;39307;52.870;13.660;2022-12-07T00:15:47;11.95;;;9.02;;
53411;SDS011;39307;52.870;13.660;2022-12-07T00:18:13;13.13;;;8.63;;
53411;SDS011;39307;52.870;13.660;2022-12-07T00:20:39;10.95;;;8.38;;
53411;SDS011;39307;52.870;13.660;2022-12-07T00:23:05;10.77;;;8.57;;
53411;SDS011;39307;52.870;13.660;2022-12-07T00:25:32;12.88;;;9.45;;
53411;SDS011;39307;52.870;13.660;2022-12-07T00:27:58;12.40;;;9.47;;
53411;SDS011;39307;52.870;13.660;2022-12-07T00:30:24;12.40;;;9.88;;
53411;SDS011;39307;52.870;13.660;2022-12-07T00:32:50;12.68;;;9.95;;
53411;SDS011;39307;52.870;13.660;2022-12-07T00:35:16;12.90;;;9.50;;
53411;SDS011;39307;52.870;13.660;2022-12-07T00:37:43;13.10;;;10.07;;
53411;SDS011;39307;52.870;13.660;2022-12-07T00:40:09;14.13;;;10.40;;
53411;SDS011;39307;52.870;13.660;2022-12-07T00:42:35;14.75;;;11.20;;
53411;SDS011;39307;52.870;13.660;2022-12-07T00:45:01;14.30;;;11.18;;
53411;SDS011;39307;52.870;13.660;2022-12-07T00:47:28;14.02;;;11.30;;
53411;SDS011;39307;52.870;13.660;2022-12-07T00:49:54;14.93;;;11.43;;
53411;SDS011;39307;52.870;13.660;2022-12-07T00:52:20;15.95;;;12.05;;
53411;SDS011;39307;52.870;13.660;2022-12-07T00:54:46;15.95;;;12.40;;
53411;SDS011;39307;52.870;13.660;2022-12-07T00:57:13;15.75;;;12.57;;
53411;SDS011;39307;52.870;13.660;2022-12-07T00:59:39;14.98;;;11.52;;
53411;SDS011;39307;52.870;13.660;2022-12-07T01:02:05;17.17;;;12.63;;
53411;SDS011;39307;52.870;13.660;2022-12-07T01:04:33;17.42;;;12.77;;
53411;SDS011;39307;52.870;13.660;2022-12-07T01:06:59;16.40;;;12.98;;
53411;SDS011;39307;52.870;13.660;2022-12-07T01:09:25;17.67;;;13.45;;
53411;SDS011;39307;52.870;13.660;2022-12-07T01:11:51;17.00;;;13.88;;
53411;SDS011;39307;52.870;13.660;2022-12-07T01:14:17;19.15;;;14.52;;
53411;SDS011;39307;52.870;13.660;2022-12-07T01:16:44;18.60;;;14.85;;
53411;SDS011;39307;52.870;13.660;2022-12-07T01:19:10;17.83;;;14.25;;
53411;SDS011;39307;52.870;13.660;2022-12-07T01:21:36;19.43;;;14.63;;
53411;SDS011;39307;52.870;13.660;2022-12-07T01:24:05;18.27;;;14.70;;
53411;SDS011;39307;52.870;13.660;2022-12-07T01:26:33;20.67;;;15.77;;
53411;SDS011;39307;52.870;13.660;2022-12-07T01:28:59;20.05;;;15.25;;
53411;SDS011;39307;52.870;13.660;2022-12-07T01:31:25;21.33;;;15.18;;
53411;SDS011;39307;52.870;13.660;2022-12-07T01:33:53;20.08;;;15.55;;
53411;SDS011;39307;52.870;13.660;2022-12-07T01:36:27;19.38;;;14.77;;
53411;SDS011;39307;52.870;13.660;2022-12-07T01:38:59;19.40;;;15.18;;
53411;SDS011;39307;52.870;13.660;2022-12-07T01:41:31;20.67;;;15.65;;
53411;SDS011;39307;52.870;13.660;2022-12-07T01:44:09;20.98;;;15.80;;
53411;SDS011;39307;52.870;13.660;2022-12-07T01:46:37;20.17;;;15.43;;
53411;SDS011;39307;52.870;13.660;2022-12-07T01:49:08;19.90;;;15.35;;
53411;SDS011;39307;52.870;13.660;2022-12-07T01:51:52;21.00;;;15.93;;
53411;SDS011;39307;52.870;13.660;2022-12-07T01:54:29;20.35;;;15.23;;
53411;SDS011;39307;52.870;13.660;2022-12-07T01:56:56;20.13;;;15.23;;
53411;SDS011;39307;52.870;13.660;2022-12-07T01:59:23;20.50;;;15.35;;
53411;SDS011;39307;52.870;13.660;2022-12-07T02:01:51;21.05;;;15.82;;
53411;SDS011;39307;52.870;13.660;2022-12-07T02:04:18;19.77;;;14.65;;
53411;SDS011;39307;52.870;13.660;2022-12-07T02:06:44;21.20;;;16.07;;
53411;SDS011;39307;52.870;13.660;2022-12-07T02:09:12;20.83;;;15.82;;
53411;SDS011;39307;52.870;13.660;2022-12-07T02:11:38;20.83;;;15.82;;
53411;SDS011;39307;52.870;13.660;2022-12-07T02:14:05;21.25;;;15.88;;
53411;SDS011;39307;52.870;13.660;2022-12-07T02:24:48;20.40;;;15.25;;
53411;SDS011;39307;52.870;13.660;2022-12-07T02:30:06;20.45;;;15.55;;
53411;SDS011;39307;52.870;13.660;2022-12-07T02:32:48;21.67;;;15.63;;
53411;SDS011;39307;52.870;13.660;2022-12-07T02:43:36;20.53;;;15.10;;
53411;SDS011;39307;52.870;13.660;2022-12-07T02:46:20;20.35;;;15.23;;
53411;SDS011;39307;52.870;13.660;2022-12-07T02:48:51;20.73;;;14.38;;
53411;SDS011;39307;52.870;13.660;2022-12-07T02:51:21;19.92;;;14.52;;
53411;SDS011;39307;52.870;13.660;2022-12-07T02:53:47;20.40;;;14.85;;
53411;SDS011;39307;52.870;13.660;2022-12-07T02:59:27;19.13;;;13.93;;
53411;SDS011;39307;52.870;13.660;2022-12-07T03:10:14;18.40;;;14.13;;
53411;SDS011;39307;52.870;13.660;2022-12-07T03:18:27;19.10;;;14.10;;
53411;SDS011;39307;52.870;13.660;2022-12-07T03:20:58;20.67;;;14.65;;
53411;SDS011;39307;52.870;13.660;2022-12-07T03:23:31;18.88;;;13.27;;
53411;SDS011;39307;52.870;13.660;2022-12-07T03:26:02;20.50;;;14.23;;
53411;SDS011;39307;52.870;13.660;2022-12-07T03:28:34;18.70;;;13.88;;
53411;SDS011;39307;52.870;13.660;2022-12-07T03:31:11;17.90;;;13.55;;
53411;SDS011;39307;52.870;13.660;2022-12-07T03:34:07;17.45;;;12.88;;
53411;SDS011;39307;52.870;13.660;2022-12-07T03:42:05;19.92;;;12.88;;
53411;SDS011;39307;52.870;13.660;2022-12-07T03:44:33;18.42;;;12.80;;
53411;SDS011;39307;52.870;13.660;2022-12-07T03:49:50;17.23;;;12.55;;
53411;SDS011;39307;52.870;13.660;2022-12-07T03:52:36;17.42;;;12.77;;
53411;SDS011;39307;52.870;13.660;2022-12-07T03:55:10;19.20;;;12.82;;
53411;SDS011;39307;52.870;13.660;2022-12-07T03:57:46;16.15;;;11.55;;
53411;SDS011;39307;52.870;13.660;2022-12-07T04:00:15;17.47;;;12.30;;
53411;SDS011;39307;52.870;13.660;2022-12-07T04:02:41;16.58;;;11.57;;
53411;SDS011;39307;52.870;13.660;2022-12-07T04:05:08;18.23;;;11.68;;
53411;SDS011;39307;52.870;13.660;2022-12-07T04:07:35;17.48;;;12.15;;
53411;SDS011;39307;52.870;13.660;2022-12-07T04:10:02;16.48;;;11.48;;
53411;SDS011;39307;52.870;13.660;2022-12-07T04:12:29;17.42;;;11.75;;
53411;SDS011;39307;52.870;13.660;2022-12-07T04:14:55;18.23;;;12.40;;
53411;SDS011;39307;52.870;13.660;2022-12-07T04:17:21;16.70;;;11.98;;
53411;SDS011;39307;52.870;13.660;2022-12-07T04:19:47;18.65;;;12.32;;
53411;SDS011;39307;52.870;13.660;2022-12-07T04:22:14;18.13;;;12.55;;
53411;SDS011;39307;52.870;13.660;2022-12-07T04:24:40;16.93;;;12.20;;
53411;SDS011;39307;52.870;13.660;2022-12-07T04:27:06;18.55;;;12.93;;
53411;SDS011;39307;52.870;13.660;2022-12-07T04:29:32;17.23;;;12.57;;
53411;SDS011;39307;52.870;13.660;2022-12-07T04:31:59;17.90;;;12.27;;
53411;SDS011;39307;52.870;13.660;2022-12-07T04:34:25;18.25;;;11.98;;
53411;SDS011;39307;52.870;13.660;2022-12-07T04:36:51;18.63;;;13.27;;
53411;SDS011;39307;52.870;13.660;2022-12-07T04:39:27;17.70;;;12.63;;
53411;SDS011;39307;52.870;13.660;2022-12-07T04:41:54;18.50;;;12.90;;
53411;SDS011;39307;52.870;13.660;2022-12-07T04:44:21;20.48;;;14.18;;
53411;SDS011;39307;52.870;13.660;2022-12-07T04:46:48;18.93;;;13.47;;
53411;SDS011;39307;52.870;13.660;2022-12-07T04:49:15;19.10;;;13.88;;
53411;SDS011;39307;52.870;13.660;2022-12-07T04:51:42;21.60;;;15.07;;
53411;SDS011;39307;52.870;13.660;2022-12-07T04:54:09;21.70;;;14.15;;
53411;SDS011;39307;52.870;13.660;2022-12-07T04:56:35;21.75;;;15.02;;
53411;SDS011;39307;52.870;13.660;2022-12-07T04:59:02;22.30;;;15.25;;
53411;SDS011;39307;52.870;13.660;2022-12-07T05:01:29;23.63;;;15.70;;
53411;SDS011;39307;52.870;13.660;2022-12-07T05:03:55;22.70;;;15.70;;
53411;SDS011;39307;52.870;13.660;2022-12-07T05:06:22;23.50;;;16.65;;
53411;SDS011;39307;52.870;13.660;2022-12-07T05:08:50;25.70;;;17.70;;
53411;SDS011;39307;52.870;13.660;2022-12-07T05:11:17;24.92;;;16.27;;
53411;SDS011;39307;52.870;13.660;2022-12-07T05:13:46;25.35;;;17.40;;
53411;SDS011;39307;52.870;13.660;2022-12-07T05:16:12;25.52;;;17.48;;
53411;SDS011;39307;52.870;13.660;2022-12-07T05:18:38;25.55;;;17.67;;
53411;SDS011;39307;52.870;13.660;2022-12-07T05:21:05;25.75;;;16.88;;
53411;SDS011;39307;52.870;13.660;2022-12-07T05:23:31;24.73;;;17.50;;
53411;SDS011;39307;52.870;13.660;2022-12-07T05:25:57;25.97;;;18.00;;
53411;SDS011;39307;52.870;13.660;2022-12-07T05:28:23;27.48;;;19.00;;
53411;SDS011;39307;52.870;13.660;2022-12-07T05:30:49;29.98;;;19.73;;
53411;SDS011;39307;52.870;13.660;2022-12-07T05:33:15;31.70;;;19.83;;
53411;SDS011;39307;52.870;13.660;2022-12-07T05:35:42;30.17;;;20.58;;
53411;SDS011;39307;52.870;13.660;2022-12-07T05:38:08;32.03;;;20.20;;
53411;SDS011;39307;52.870;13.660;2022-12-07T05:40:34;33.22;;;21.65;;
53411;SDS011;39307;52.870;13.660;2022-12-07T05:43:01;32.70;;;21.77;;
53411;SDS011;39307;52.870;13.660;2022-12-07T05:45:28;36.60;;;22.90;;
53411;SDS011;39307;52.870;13.660;2022-12-07T05:47:54;35.93;;;23.27;;
53411;SDS011;39307;52.870;13.660;2022-12-07T05:50:20;37.30;;;24.35;;
53411;SDS011;39307;52.870;13.660;2022-12-07T05:52:46;38.90;;;24.90;;
53411;SDS011;39307;52.870;13.660;2022-12-07T05:55:12;38.47;;;24.65;;
53411;SDS011;39307;52.870;13.660;2022-12-07T05:57:38;41.92;;;26.30;;
53411;SDS011;39307;52.870;13.660;2022-12-07T06:00:05;45.20;;;26.58;;
53411;SDS011;39307;52.870;13.660;2022-12-07T06:02:32;43.20;;;26.90;;
53411;SDS011;39307;52.870;13.660;2022-12-07T06:04:58;46.88;;;27.90;;
53411;SDS011;39307;52.870;13.660;2022-12-07T06:07:24;43.38;;;26.98;;
53411;SDS011;39307;52.870;13.660;2022-12-07T06:09:50;41.38;;;26.10;;
53411;SDS011;39307;52.870;13.660;2022-12-07T06:12:16;45.42;;;27.75;;
53411;SDS011;39307;52.870;13.660;2022-12-07T06:14:43;43.97;;;26.00;;
53411;SDS011;39307;52.870;13.660;2022-12-07T06:17:09;41.58;;;26.55;;
53411;SDS011;39307;52.870;13.660;2022-12-07T06:19:35;38.67;;;25.02;;
53411;SDS011;39307;52.870;13.660;2022-12-07T06:22:02;39.35;;;24.38;;
53411;SDS011;39307;52.870;13.660;2022-12-07T06:24:28;39.00;;;25.77;;
53411;SDS011;39307;52.870;13.660;2022-12-07T06:26:54;41.78;;;26.30;;
53411;SDS011;39307;52.870;13.660;2022-12-07T06:29:20;43.72;;;28.45;;
53411;SDS011;39307;52.870;13.660;2022-12-07T06:31:47;41.05;;;26.88;;
53411;SDS011;39307;52.870;13.660;2022-12-07T06:34:18;44.17;;;27.20;;
53411;SDS011;39307;52.870;13.660;2022-12-07T06:36:45;40.50;;;25.83;;
53411;SDS011;39307;52.870;13.660;2022-12-07T06:39:12;41.08;;;26.35;;
53411;SDS011;39307;52.870;13.660;2022-12-07T06:41:38;42.50;;;27.23;;
53411;SDS011;39307;52.870;13.660;2022-12-07T06:44:05;44.88;;;27.98;;
53411;SDS011;39307;52.870;13.660;2022-12-07T06:46:32;44.33;;;27.00;;
53411;SDS011;39307;52.870;13.660;2022-12-07T06:48:58;46.28;;;28.90;;
53411;SDS011;39307;52.870;13.660;2022-12-07T06:51:24;44.15;;;27.88;;
53411;SDS011;39307;52.870;13.660;2022-12-07T06:53:50;41.45;;;27.35;;
53411;SDS011;39307;52.870;13.660;2022-12-07T06:56:16;39.28;;;25.80;;
53411;SDS011;39307;52.870;13.660;2022-12-07T06:58:43;41.27;;;26.40;;
53411;SDS011;39307;52.870;13.660;2022-12-07T07:01:10;40.40;;;24.80;;
53411;SDS011;39307;52.870;13.660;2022-12-07T07:03:37;35.42;;;23.55;;
53411;SDS011;39307;52.870;13.660;2022-12-07T07:06:03;32.53;;;21.75;;
53411;SDS011;39307;52.870;13.660;2022-12-07T07:08:30;35.60;;;21.75;;
53411;SDS011;39307;52.870;13.660;2022-12-07T07:10:56;34.33;;;21.48;;
53411;SDS011;39307;52.870;13.660;2022-12-07T07:13:22;32.13;;;20.63;;
53411;SDS011;39307;52.870;13.660;2022-12-07T07:15:49;30.00;;;20.48;;
53411;SDS011;39307;52.870;13.660;2022-12-07T07:18:15;30.10;;;19.87;;
53411;SDS011;39307;52.870;13.660;2022-12-07T07:20:41;28.08;;;19.13;;
53411;SDS011;39307;52.870;13.660;2022-12-07T07:23:07;27.70;;;18.20;;
53411;SDS011;39307;52.870;13.660;2022-12-07T07:25:33;23.75;;;16.70;;
53411;SDS011;39307;52.870;13.660;2022-12-07T07:28:00;24.45;;;16.48;;
53411;SDS011;39307;52.870;13.660;2022-12-07T07:30:26;24.02;;;16.15;;
53411;SDS011;39307;52.870;13.660;2022-12-07T07:32:58;20.10;;;14.10;;
53411;SDS011;39307;52.870;13.660;2022-12-07T07:35:26;19.83;;;13.02;;
53411;SDS011;39307;52.870;13.660;2022-12-07T07:37:53;16.77;;;12.10;;
53411;SDS011;39307;52.870;13.660;2022-12-07T07:40:20;16.67;;;10.77;;
53411;SDS011;39307;52.870;13.660;2022-12-07T07:42:50;15.80;;;10.70;;
53411;SDS011;39307;52.870;13.660;2022-12-07T07:45:17;14.13;;;9.73;;
53411;SDS011;39307;52.870;13.660;2022-12-07T07:47:44;13.48;;;9.18;;
53411;SDS011;39307;52.870;13.660;2022-12-07T07:50:11;12.00;;;8.32;;
53411;SDS011;39307;52.870;13.660;2022-12-07T07:52:37;11.73;;;8.18;;
53411;SDS011;39307;52.870;13.660;2022-12-07T07:55:03;10.98;;;7.10;;
53411;SDS011;39307;52.870;13.660;2022-12-07T07:57:30;11.00;;;6.83;;
53411;SDS011;39307;52.870;13.660;2022-12-07T07:59:56;9.90;;;6.10;;
53411;SDS011;39307;52.870;13.660;2022-12-07T08:02:22;10.88;;;6.57;;
53411;SDS011;39307;52.870;13.660;2022-12-07T08:04:48;9.00;;;6.03;;
53411;SDS011;39307;52.870;13.660;2022-12-07T08:07:15;9.82;;;6.03;;
53411;SDS011;39307;52.870;13.660;2022-12-07T08:09:41;10.32;;;6.55;;
53411;SDS011;39307;52.870;13.660;2022-12-07T08:12:08;10.10;;;6.47;;
53411;SDS011;39307;52.870;13.660;2022-12-07T08:14:34;9.67;;;5.80;;
53411;SDS011;39307;52.870;13.660;2022-12-07T08:17:00;11.07;;;6.70;;
53411;SDS011;39307;52.870;13.660;2022-12-07T08:19:26;11.05;;;6.90;;
53411;SDS011;39307;52.870;13.660;2022-12-07T08:21:52;10.90;;;7.20;;
53411;SDS011;39307;52.870;13.660;2022-12-07T08:24:19;12.88;;;8.43;;
53411;SDS011;39307;52.870;13.660;2022-12-07T08:26:45;11.43;;;7.40;;
53411;SDS011;39307;52.870;13.660;2022-12-07T08:29:11;11.75;;;7.10;;
53411;SDS011;39307;52.870;13.660;2022-12-07T08:31:37;12.27;;;7.75;;
53411;SDS011;39307;52.870;13.660;2022-12-07T08:34:03;11.88;;;7.15;;
53411;SDS011;39307;52.870;13.660;2022-12-07T08:36:30;11.97;;;7.93;;
53411;SDS011;39307;52.870;13.660;2022-12-07T08:38:56;12.38;;;8.35;;
53411;SDS011;39307;52.870;13.660;2022-12-07T08:41:22;13.10;;;8.48;;
53411;SDS011;39307;52.870;13.660;2022-12-07T08:43:48;13.43;;;8.40;;
53411;SDS011;39307;52.870;13.660;2022-12-07T08:46:21;11.27;;;8.60;;
53411;SDS011;39307;52.870;13.660;2022-12-07T08:48:56;11.32;;;8.18;;
53411;SDS011;39307;52.870;13.660;2022-12-07T08:51:30;12.07;;;8.50;;
53411;SDS011;39307;52.870;13.660;2022-12-07T08:53:57;11.95;;;8.02;;
53411;SDS011;39307;52.870;13.660;2022-12-07T08:56:30;13.75;;;8.18;;
53411;SDS011;39307;52.870;13.660;2022-12-07T08:58:57;10.85;;;7.72;;
53411;SDS011;39307;52.870;13.660;2022-12-07T09:01:23;11.65;;;7.68;;
53411;SDS011;39307;52.870;13.660;2022-12-07T09:03:50;11.18;;;7.22;;
53411;SDS011;39307;52.870;13.660;2022-12-07T09:06:16;10.20;;;7.00;;
53411;SDS011;39307;52.870;13.660;2022-12-07T09:08:44;10.40;;;6.90;;
53411;SDS011;39307;52.870;13.660;2022-12-07T09:11:15;10.15;;;6.90;;
53411;SDS011;39307;52.870;13.660;2022-12-07T09:13:41;9.10;;;6.68;;
53411;SDS011;39307;52.870;13.660;2022-12-07T09:16:07;8.82;;;6.53;;
53411;SDS011;39307;52.870;13.660;2022-12-07T09:18:34;10.27;;;6.85;;
53411;SDS011;39307;52.870;13.660;2022-12-07T09:21:00;9.00;;;6.47;;
53411;SDS011;39307;52.870;13.660;2022-12-07T09:23:26;9.88;;;6.68;;
53411;SDS011;39307;52.870;13.660;2022-12-07T09:25:52;9.32;;;6.80;;
53411;SDS011;39307;52.870;13.660;2022-12-07T09:28:19;10.23;;;6.78;;
53411;SDS011;39307;52.870;13.660;2022-12-07T09:30:45;9.07;;;6.93;;
53411;SDS011;39307;52.870;13.660;2022-12-07T09:33:12;12.95;;;7.68;;
53411;SDS011;39307;52.870;13.660;2022-12-07T09:35:48;9.35;;;6.97;;
53411;SDS011;39307;52.870;13.660;2022-12-07T09:38:15;10.57;;;6.78;;
53411;SDS011;39307;52.870;13.660;2022-12-07T09:40:42;9.43;;;6.57;;
53411;SDS011;39307;52.870;13.660;2022-12-07T09:43:13;9.20;;;7.03;;
53411;SDS011;39307;52.870;13.660;2022-12-07T09:45:41;11.10;;;6.93;;
53411;SDS011;39307;52.870;13.660;2022-12-07T09:48:18;9.98;;;6.57;;
53411;SDS011;39307;52.870;13.660;2022-12-07T09:50:57;10.30;;;6.57;;
53411;SDS011;39307;52.870;13.660;2022-12-07T09:53:30;8.23;;;5.85;;
53411;SDS011;39307;52.870;13.660;2022-12-07T09:56:03;8.00;;;5.95;;
53411;SDS011;39307;52.870;13.660;2022-12-07T09:58:30;8.38;;;5.45;;
53411;SDS011;39307;52.870;13.660;2022-12-07T10:00:58;7.63;;;4.90;;
53411;SDS011;39307;52.870;13.660;2022-12-07T10:03:31;7.57;;;4.65;;
53411;SDS011;39307;52.870;13.660;2022-12-07T10:05:57;7.40;;;4.75;;
53411;SDS011;39307;52.870;13.660;2022-12-07T10:08:24;7.40;;;4.20;;
53411;SDS011;39307;52.870;13.660;2022-12-07T10:10:54;7.15;;;4.22;;
53411;SDS011;39307;52.870;13.660;2022-12-07T10:13:22;7.57;;;4.20;;
53411;SDS011;39307;52.870;13.660;2022-12-07T10:16:01;7.63;;;4.10;;
53411;SDS011;39307;52.870;13.660;2022-12-07T10:18:35;5.67;;;4.20;;
53411;SDS011;39307;52.870;13.660;2022-12-07T10:21:16;6.27;;;4.27;;
53411;SDS011;39307;52.870;13.660;2022-12-07T10:29:14;6.70;;;4.30;;
53411;SDS011;39307;52.870;13.660;2022-12-07T10:31:45;6.00;;;3.80;;
53411;SDS011;39307;52.870;13.660;2022-12-07T10:34:23;5.88;;;3.40;;
53411;SDS011;39307;52.870;13.660;2022-12-07T10:36:52;5.68;;;3.20;;
53411;SDS011;39307;52.870;13.660;2022-12-07T10:39:19;5.20;;;3.28;;
53411;SDS011;39307;52.870;13.660;2022-12-07T10:41:57;5.72;;;3.00;;
53411;SDS011;39307;52.870;13.660;2022-12-07T10:44:27;6.37;;;3.40;;
53411;SDS011;39307;52.870;13.660;2022-12-07T10:47:17;5.07;;;3.07;;
53411;SDS011;39307;52.870;13.660;2022-12-07T10:52:47;5.50;;;3.00;;
53411;SDS011;39307;52.870;13.660;2022-12-07T11:09:41;4.82;;;3.20;;
53411;SDS011;39307;52.870;13.660;2022-12-07T11:12:29;6.03;;;3.20;;
53411;SDS011;39307;52.870;13.660;2022-12-07T11:15:30;5.90;;;3.20;;
53411;SDS011;39307;52.870;13.660;2022-12-07T11:18:14;5.28;;;3.22;;
53411;SDS011;39307;52.870;13.660;2022-12-07T11:23:42;6.07;;;3.22;;
53411;SDS011;39307;52.870;13.660;2022-12-07T11:26:15;6.23;;;3.20;;
53411;SDS011;39307;52.870;13.660;2022-12-07T11:28:55;5.00;;;3.25;;
53411;SDS011;39307;52.870;13.660;2022-12-07T11:31:56;5.47;;;3.30;;
53411;SDS011;39307;52.870;13.660;2022-12-07T11:34:39;5.97;;;3.20;;
53411;SDS011;39307;52.870;13.660;2022-12-07T11:37:25;5.32;;;3.30;;
53411;SDS011;39307;52.870;13.660;2022-12-07T11:40:01;6.22;;;3.40;;
53411;SDS011;39307;52.870;13.660;2022-12-07T11:42:35;5.55;;;3.10;;
53411;SDS011;39307;52.870;13.660;2022-12-07T11:45:26;6.20;;;3.03;;
53411;SDS011;39307;52.870;13.660;2022-12-07T11:48:28;6.93;;;3.30;;
53411;SDS011;39307;52.870;13.660;2022-12-07T11:50:59;6.07;;;2.75;;
53411;SDS011;39307;52.870;13.660;2022-12-07T11:53:36;5.22;;;2.92;;
53411;SDS011;39307;52.870;13.660;2022-12-07T11:56:12;7.53;;;3.20;;
53411;SDS011;39307;52.870;13.660;2022-12-07T12:07:38;6.50;;;3.05;;
53411;SDS011;39307;52.870;13.660;2022-12-07T12:10:13;5.75;;;2.83;;
53411;SDS011;39307;52.870;13.660;2022-12-07T12:18:29;6.93;;;3.50;;
53411;SDS011;39307;52.870;13.660;2022-12-07T12:21:08;5.32;;;2.80;;
53411;SDS011;39307;52.870;13.660;2022-12-07T12:23:50;5.65;;;3.03;;
53411;SDS011;39307;52.870;13.660;2022-12-07T12:26:59;5.43;;;3.13;;
53411;SDS011;39307;52.870;13.660;2022-12-07T12:29:32;6.20;;;3.07;;
53411;SDS011;39307;52.870;13.660;2022-12-07T12:32:05;5.10;;;3.07;;
53411;SDS011;39307;52.870;13.660;2022-12-07T12:42:45;5.88;;;3.13;;
53411;SDS011;39307;52.870;13.660;2022-12-07T12:45:25;6.37;;;3.30;;
53411;SDS011;39307;52.870;13.660;2022-12-07T12:48:02;6.10;;;3.30;;
53411;SDS011;39307;52.870;13.660;2022-12-07T12:50:36;7.20;;;3.45;;
53411;SDS011;39307;52.870;13.660;2022-12-07T12:59:42;8.27;;;3.55;;
53411;SDS011;39307;52.870;13.660;2022-12-07T13:05:01;6.73;;;3.03;;
53411;SDS011;39307;52.870;13.660;2022-12-07T13:12:58;5.75;;;3.00;;
53411;SDS011;39307;52.870;13.660;2022-12-07T13:15:36;7.95;;;3.20;;
53411;SDS011;39307;52.870;13.660;2022-12-07T13:18:14;7.68;;;3.03;;
53411;SDS011;39307;52.870;13.660;2022-12-07T13:21:01;8.23;;;3.43;;
53411;SDS011;39307;52.870;13.660;2022-12-07T13:28:54;8.02;;;2.85;;
53411;SDS011;39307;52.870;13.660;2022-12-07T13:31:38;8.05;;;3.33;;
53411;SDS011;39307;52.870;13.660;2022-12-07T13:39:54;7.18;;;2.85;;
53411;SDS011;39307;52.870;13.660;2022-12-07T13:42:25;7.37;;;2.67;;
53411;SDS011;39307;52.870;13.660;2022-12-07T13:44:54;7.78;;;2.90;;
53411;SDS011;39307;52.870;13.660;2022-12-07T13:47:41;6.93;;;2.80;;
53411;SDS011;39307;52.870;13.660;2022-12-07T13:50:24;9.18;;;2.70;;
53411;SDS011;39307;52.870;13.660;2022-12-07T13:52:55;6.90;;;2.60;;
53411;SDS011;39307;52.870;13.660;2022-12-07T13:55:26;6.47;;;2.60;;
53411;SDS011;39307;52.870;13.660;2022-12-07T13:57:53;7.43;;;2.42;;
53411;SDS011;39307;52.870;13.660;2022-12-07T14:00:25;6.00;;;2.28;;
53411;SDS011;39307;52.870;13.660;2022-12-07T14:03:01;10.57;;;2.33;;
53411;SDS011;39307;52.870;13.660;2022-12-07T14:05:30;6.45;;;2.05;;
53411;SDS011;39307;52.870;13.660;2022-12-07T14:10:38;6.10;;;2.25;;
53411;SDS011;39307;52.870;13.660;2022-12-07T14:15:54;7.80;;;2.35;;
53411;SDS011;39307;52.870;13.660;2022-12-07T14:18:28;7.70;;;2.05;;
53411;SDS011;39307;52.870;13.660;2022-12-07T14:21:05;6.45;;;2.08;;
53411;SDS011;39307;52.870;13.660;2022-12-07T14:23:35;7.53;;;1.97;;
53411;SDS011;39307;52.870;13.660;2022-12-07T14:26:13;6.22;;;2.05;;
53411;SDS011;39307;52.870;13.660;2022-12-07T14:28:41;6.45;;;1.85;;
53411;SDS011;39307;52.870;13.660;2022-12-07T14:31:15;6.75;;;1.95;;
53411;SDS011;39307;52.870;13.660;2022-12-07T14:33:43;7.05;;;2.15;;
53411;SDS011;39307;52.870;13.660;2022-12-07T14:36:13;5.38;;;1.70;;
53411;SDS011;39307;52.870;13.660;2022-12-07T14:38:40;6.28;;;1.88;;
53411;SDS011;39307;52.870;13.660;2022-12-07T14:41:12;7.85;;;2.00;;
53411;SDS011;39307;52.870;13.660;2022-12-07T14:43:40;5.70;;;1.90;;
53411;SDS011;39307;52.870;13.660;2022-12-07T14:46:06;6.57;;;2.00;;
53411;SDS011;39307;52.870;13.660;2022-12-07T14:48:34;7.82;;;1.83;;
53411;SDS011;39307;52.870;13.660;2022-12-07T14:51:00;5.72;;;2.05;;
53411;SDS011;39307;52.870;13.660;2022-12-07T14:53:31;5.75;;;1.90;;
53411;SDS011;39307;52.870;13.660;2022-12-07T14:56:02;9.33;;;2.30;;
53411;SDS011;39307;52.870;13.660;2022-12-07T14:58:29;6.10;;;2.10;;
53411;SDS011;39307;52.870;13.660;2022-12-07T15:00:55;6.63;;;1.65;;
53411;SDS011;39307;52.870;13.660;2022-12-07T15:03:21;6.57;;;1.73;;
53411;SDS011;39307;52.870;13.660;2022-12-07T15:05:47;8.05;;;2.50;;
53411;SDS011;39307;52.870;13.660;2022-12-07T15:08:14;8.23;;;2.30;;
53411;SDS011;39307;52.870;13.660;2022-12-07T15:10:40;7.90;;;2.15;;
53411;SDS011;39307;52.870;13.660;2022-12-07T15:13:06;5.90;;;2.10;;
53411;SDS011;39307;52.870;13.660;2022-12-07T15:15:33;9.38;;;2.08;;
53411;SDS011;39307;52.870;13.660;2022-12-07T15:17:59;6.60;;;2.15;;
53411;SDS011;39307;52.870;13.660;2022-12-07T15:20:26;7.80;;;1.95;;
53411;SDS011;39307;52.870;13.660;2022-12-07T15:22:52;6.45;;;2.00;;
53411;SDS011;39307;52.870;13.660;2022-12-07T15:25:18;7.10;;;1.80;;
53411;SDS011;39307;52.870;13.660;2022-12-07T15:27:44;5.97;;;2.00;;
53411;SDS011;39307;52.870;13.660;2022-12-07T15:30:10;9.30;;;2.30;;
53411;SDS011;39307;52.870;13.660;2022-12-07T15:32:36;6.72;;;2.20;;
53411;SDS011;39307;52.870;13.660;2022-12-07T15:35:03;5.47;;;1.70;;
53411;SDS011;39307;52.870;13.660;2022-12-07T15:37:29;7.43;;;1.90;;
53411;SDS011;39307;52.870;13.660;2022-12-07T15:39:55;8.25;;;2.25;;
53411;SDS011;39307;52.870;13.660;2022-12-07T15:42:22;11.05;;;2.50;;
53411;SDS011;39307;52.870;13.660;2022-12-07T15:44:48;7.13;;;2.10;;
53411;SDS011;39307;52.870;13.660;2022-12-07T15:47:14;5.72;;;1.83;;
53411;SDS011;39307;52.870;13.660;2022-12-07T15:49:40;7.80;;;1.80;;
53411;SDS011;39307;52.870;13.660;2022-12-07T15:52:06;7.45;;;1.70;;
53411;SDS011;39307;52.870;13.660;2022-12-07T15:54:33;6.35;;;1.80;;
53411;SDS011;39307;52.870;13.660;2022-12-07T15:56:59;7.27;;;1.40;;
53411;SDS011;39307;52.870;13.660;2022-12-07T15:59:26;6.20;;;1.70;;
53411;SDS011;39307;52.870;13.660;2022-12-07T16:01:53;5.60;;;1.60;;
53411;SDS011;39307;52.870;13.660;2022-12-07T16:04:19;7.10;;;1.70;;
53411;SDS011;39307;52.870;13.660;2022-12-07T16:06:45;6.97;;;1.70;;
53411;SDS011;39307;52.870;13.660;2022-12-07T16:09:12;7.07;;;1.95;;
53411;SDS011;39307;52.870;13.660;2022-12-07T16:11:38;7.95;;;1.65;;
53411;SDS011;39307;52.870;13.660;2022-12-07T16:14:04;6.10;;;1.80;;
53411;SDS011;39307;52.870;13.660;2022-12-07T16:16:30;5.57;;;1.65;;
53411;SDS011;39307;52.870;13.660;2022-12-07T16:18:56;7.25;;;1.80;;
53411;SDS011;39307;52.870;13.660;2022-12-07T16:21:23;7.37;;;1.73;;
53411;SDS011;39307;52.870;13.660;2022-12-07T16:23:49;5.70;;;1.77;;
53411;SDS011;39307;52.870;13.660;2022-12-07T16:26:19;7.45;;;2.00;;
53411;SDS011;39307;52.870;13.660;2022-12-07T16:28:50;6.70;;;1.80;;
53411;SDS011;39307;52.870;13.660;2022-12-07T16:31:18;5.40;;;1.50;;
53411;SDS011;39307;52.870;13.660;2022-12-07T16:33:46;6.15;;;1.83;;
53411;SDS011;39307;52.870;13.660;2022-12-07T16:36:13;5.47;;;1.42;;
53411;SDS011;39307;52.870;13.660;2022-12-07T16:38:39;6.72;;;1.42;;